Pickleville, Utah
Current Conditions -  °F | °C
As of 12:51 AM on Friday 19 Dec 2014 (Local Time) from KLGU Reporting Station
Clear Clear  
Wind Chill: 24°   Ceiling: Unl
Heat Index: 24°   Visibility: 10mi
Dew Point: 21°   Wind: 0mph
Humidity: 88%   Direction: NA
Pressure: 30.17"   Gusts: NA
Location:  41.9408°N, 111.433°W
Report Text: KLGU 190751Z AUTO 00000KT 10SM CLR M04/M06 A3017 RMK AO2 SLP234 T10441061
Loading
Personal Weather Stations






























Interactive Weather Map New forecast layout! Learn more

10-Day Weather Forecast

Advertisements
Track Severe Weather on mobile